Terminal Aerodrome Forecast
Issued by NWS Pocatello, ID

Home | Current Version | Previous Version | Text Only | Print | Product List | Glossary On
Versions: 1 2 3 4 5 6 7 8 9 10 11 12 13 14
000
FTUS45 KPIH 271120
TAFBYI
TAF
KBYI 271120Z 2712/2812 VRB05KT P6SM -SHRA BKN080
     FM271800 27015G25KT P6SM -SHRA SCT025 BKN030
     FM280000 28012G22KT P6SM VCSH SCT040=

USA.gov is the U.S. government's official web portal to all federal, state and local government web resources and services.